Time;durP1;ratioP1;P1;durP2;ratioP2;P2;SDS_P1;SDS_P2;PMS_P1;PMS_P2;Temp;Humidity;BMP_temperature;BMP_pressure;BME280_temperature;BME280_humidity;BME280_pressure;Samples;Min_cycle;Max_cycle;Signal;HPM_P1;HPM_P2
2020/12/22 00:00:18;;;;;;;12.70;5.97;;;8.50;80.10;;;;;;5059906;28;20021;-83
2020/12/22 00:02:45;;;;;;;13.27;6.15;;;8.50;80.20;;;;;;5015576;28;20036;-83
2020/12/22 00:05:12;;;;;;;12.95;5.97;;;8.50;80.20;;;;;;5041342;28;20033;-83
2020/12/22 00:07:39;;;;;;;14.30;6.15;;;8.50;80.10;;;;;;5037639;28;20125;-82
2020/12/22 00:10:07;;;;;;;12.90;6.20;;;8.50;80.20;;;;;;5037290;28;20022;-82
2020/12/22 00:12:33;;;;;;;13.90;6.03;;;8.50;80.10;;;;;;5037376;28;20044;-82
2020/12/22 00:15:00;;;;;;;12.35;5.80;;;8.50;80.10;;;;;;5043067;28;20053;-82
2020/12/22 00:17:29;;;;;;;13.85;6.28;;;8.50;80.20;;;;;;5038109;28;20029;-82
2020/12/22 00:19:54;;;;;;;11.25;5.57;;;8.50;80.20;;;;;;5037189;28;20025;-82
2020/12/22 00:22:20;;;;;;;14.20;6.30;;;8.50;80.20;;;;;;5027574;28;20020;-82
2020/12/22 00:24:45;;;;;;;13.38;6.03;;;8.50;80.40;;;;;;5041257;28;20054;-82
2020/12/22 00:27:11;;;;;;;15.32;6.80;;;8.50;80.20;;;;;;5039663;28;20118;-82
2020/12/22 00:29:37;;;;;;;14.95;6.88;;;8.50;80.20;;;;;;5054633;28;20363;-82
2020/12/22 00:32:03;;;;;;;13.30;6.05;;;8.50;80.30;;;;;;5037404;28;20435;-82
2020/12/22 00:34:30;;;;;;;13.50;6.25;;;8.50;80.30;;;;;;5019862;28;20069;-82
2020/12/22 00:36:55;;;;;;;13.05;6.45;;;8.50;80.40;;;;;;5038415;28;20122;-82
2020/12/22 00:39:21;;;;;;;11.23;5.38;;;8.50;80.30;;;;;;5036862;28;20025;-82
2020/12/22 00:41:55;;;;;;;12.40;5.88;;;8.50;80.30;;;;;;5036969;28;20116;-83
2020/12/22 00:44:21;;;;;;;11.52;5.95;;;8.60;80.50;;;;;;5039409;28;20021;-82
2020/12/22 00:46:47;;;;;;;12.73;5.88;;;8.50;80.30;;;;;;5036678;28;20029;-82
2020/12/22 00:49:13;;;;;;;12.40;5.70;;;8.50;80.20;;;;;;5039343;28;20668;-84
2020/12/22 00:51:39;;;;;;;17.33;5.72;;;8.50;80.60;;;;;;5054085;28;20071;-85
2020/12/22 00:54:04;;;;;;;14.45;7.05;;;8.60;80.70;;;;;;5024406;28;20029;-85
2020/12/22 00:56:30;;;;;;;13.93;6.63;;;8.60;80.40;;;;;;5040547;28;20047;-85
2020/12/22 00:58:55;;;;;;;13.02;6.78;;;8.60;80.70;;;;;;5036626;28;20358;-84
2020/12/22 01:01:21;;;;;;;14.35;6.88;;;8.60;80.90;;;;;;5019970;28;20067;-85
2020/12/22 01:03:47;;;;;;;12.27;5.70;;;8.70;80.70;;;;;;5019801;28;20028;-85
2020/12/22 01:06:13;;;;;;;14.45;6.53;;;8.70;80.70;;;;;;5038719;28;20036;-83
2020/12/22 01:08:38;;;;;;;17.00;6.75;;;8.70;80.90;;;;;;5057064;28;20025;-83
2020/12/22 01:11:04;;;;;;;14.40;6.53;;;8.70;80.70;;;;;;5058099;28;20457;-83
2020/12/22 01:13:30;;;;;;;12.80;6.45;;;8.80;80.80;;;;;;5036231;28;20020;-83
2020/12/22 01:15:56;;;;;;;14.65;7.00;;;8.80;80.60;;;;;;5023973;28;20033;-83
2020/12/22 01:18:22;;;;;;;16.27;7.47;;;8.70;80.50;;;;;;5053889;28;20035;-83
2020/12/22 01:20:48;;;;;;;14.95;7.10;;;8.70;80.70;;;;;;5039892;28;20029;-83
2020/12/22 01:23:14;;;;;;;14.02;7.00;;;8.70;80.70;;;;;;5053924;28;20448;-83
2020/12/22 01:25:40;;;;;;;15.63;7.10;;;8.80;80.80;;;;;;5036097;28;20168;-83
2020/12/22 01:28:06;;;;;;;13.48;6.88;;;8.80;80.60;;;;;;5035968;28;20033;-83
2020/12/22 01:30:31;;;;;;;13.27;6.10;;;8.80;80.80;;;;;;5026052;28;20041;-83
2020/12/22 01:32:57;;;;;;;14.85;6.88;;;8.80;80.80;;;;;;5036104;28;20113;-83
2020/12/22 01:35:23;;;;;;;14.18;6.97;;;8.80;80.80;;;;;;5039666;28;20483;-82
2020/12/22 01:37:48;;;;;;;15.30;7.30;;;8.80;80.80;;;;;;5036145;28;20017;-83
2020/12/22 01:40:14;;;;;;;14.50;6.82;;;8.90;80.90;;;;;;5019585;28;20174;-83
2020/12/22 01:42:44;;;;;;;14.88;7.10;;;8.90;80.90;;;;;;5035453;28;20025;-83
2020/12/22 01:45:13;;;;;;;17.20;7.97;;;8.90;80.80;;;;;;5035933;28;20040;-83
2020/12/22 01:47:45;;;;;;;14.73;6.90;;;8.90;80.80;;;;;;5053766;28;20096;-83
2020/12/22 01:50:14;;;;;;;14.55;7.38;;;8.90;80.90;;;;;;5036291;28;20025;-83
2020/12/22 01:52:41;;;;;;;16.42;7.13;;;8.90;80.80;;;;;;5019304;28;20036;-83
2020/12/22 01:55:07;;;;;;;15.32;7.28;;;8.90;81.10;;;;;;5035537;28;20025;-83
2020/12/22 01:57:33;;;;;;;13.35;7.03;;;9.00;81.30;;;;;;5037822;28;20025;-83
2020/12/22 01:59:58;;;;;;;16.08;8.13;;;9.00;81.20;;;;;;5033942;28;20104;-83
2020/12/22 02:02:24;;;;;;;15.90;7.38;;;9.10;81.20;;;;;;5036106;28;20469;-83
2020/12/22 02:04:50;;;;;;;15.82;7.00;;;9.10;81.10;;;;;;5035982;28;20025;-83
2020/12/22 02:07:17;;;;;;;14.85;7.40;;;9.10;81.00;;;;;;5035822;28;20025;-83
2020/12/22 02:09:45;;;;;;;17.95;7.78;;;9.10;81.10;;;;;;5011737;28;20119;-83
2020/12/22 02:12:11;;;;;;;16.23;8.13;;;9.10;81.00;;;;;;5035986;28;20465;-83
2020/12/22 02:14:36;;;;;;;14.25;7.20;;;9.10;80.90;;;;;;5013985;28;20022;-83
2020/12/22 02:17:02;;;;;;;18.05;8.77;;;9.20;81.10;;;;;;5039560;28;20024;-83
2020/12/22 02:19:28;;;;;;;15.60;7.75;;;9.20;81.10;;;;;;5022326;28;20025;-84
2020/12/22 02:21:54;;;;;;;15.25;6.57;;;9.20;81.10;;;;;;5027870;28;20032;-84
2020/12/22 02:24:20;;;;;;;17.08;8.73;;;9.20;81.20;;;;;;5054563;28;20025;-83
2020/12/22 02:26:46;;;;;;;15.32;7.10;;;9.20;81.10;;;;;;5023001;28;20112;-83
2020/12/22 02:29:12;;;;;;;16.55;7.88;;;9.30;81.30;;;;;;5039315;28;20123;-83
2020/12/22 02:31:37;;;;;;;15.23;7.35;;;9.30;81.40;;;;;;5045287;28;20124;-83
2020/12/22 02:34:03;;;;;;;13.75;6.70;;;9.30;81.40;;;;;;5021947;28;20370;-83
2020/12/22 02:36:29;;;;;;;13.98;7.05;;;9.30;81.40;;;;;;5049648;28;20060;-85
2020/12/22 02:38:54;;;;;;;17.80;7.00;;;9.40;81.40;;;;;;5035422;28;20040;-83
2020/12/22 02:41:20;;;;;;;14.18;6.07;;;9.40;81.40;;;;;;5035481;28;20068;-83
2020/12/22 02:43:46;;;;;;;12.75;6.32;;;9.40;81.50;;;;;;5035455;28;20021;-83
2020/12/22 02:46:12;;;;;;;15.02;6.43;;;9.50;81.70;;;;;;5052891;28;20388;-83
2020/12/22 02:48:37;;;;;;;12.98;5.68;;;9.50;81.70;;;;;;5018778;28;20544;-83
2020/12/22 02:51:03;;;;;;;13.40;6.22;;;9.60;81.70;;;;;;5035242;28;20116;-83
2020/12/22 02:53:29;;;;;;;15.00;6.68;;;9.60;81.80;;;;;;5018804;28;20029;-83
2020/12/22 02:55:54;;;;;;;13.15;6.20;;;9.70;81.80;;;;;;5038216;28;20025;-85
2020/12/22 02:58:20;;;;;;;14.25;6.30;;;9.70;81.80;;;;;;5024880;28;20067;-85
2020/12/22 03:00:46;;;;;;;14.15;6.43;;;9.70;81.60;;;;;;5022298;28;20090;-85
2020/12/22 03:03:12;;;;;;;12.75;6.00;;;9.80;81.60;;;;;;5041509;28;20505;-84
2020/12/22 03:05:38;;;;;;;12.05;5.50;;;9.80;81.70;;;;;;5041087;28;20021;-85
2020/12/22 03:08:04;;;;;;;11.02;5.05;;;9.80;81.60;;;;;;5025762;28;20033;-85
2020/12/22 03:10:30;;;;;;;12.65;5.32;;;9.80;81.60;;;;;;5041775;28;20094;-85
2020/12/22 03:12:55;;;;;;;7.18;3.55;;;9.80;81.60;;;;;;5059486;28;20021;-85
2020/12/22 03:15:21;;;;;;;13.02;5.80;;;9.80;81.80;;;;;;5038237;28;20071;-85
2020/12/22 03:17:47;;;;;;;9.02;3.63;;;9.90;82.00;;;;;;5038127;28;20380;-83
2020/12/22 03:20:13;;;;;;;7.13;2.60;;;9.90;81.90;;;;;;5041243;28;20112;-83
2020/12/22 03:22:42;;;;;;;10.10;4.75;;;10.00;81.90;;;;;;5041194;28;20192;-84
2020/12/22 03:25:11;;;;;;;10.35;4.47;;;9.90;81.80;;;;;;5042745;28;20016;-83
2020/12/22 03:27:38;;;;;;;9.60;4.28;;;10.00;81.80;;;;;;5042305;28;20484;-83
2020/12/22 03:30:13;;;;;;;8.48;3.67;;;10.00;81.80;;;;;;5058811;28;20434;-83
2020/12/22 03:32:40;;;;;;;9.73;4.32;;;10.00;81.80;;;;;;5037522;28;20037;-83
2020/12/22 03:35:07;;;;;;;4.53;2.05;;;10.00;81.80;;;;;;5047583;28;20052;-83
2020/12/22 03:37:32;;;;;;;8.98;4.07;;;10.00;81.80;;;;;;5040548;28;20116;-83
2020/12/22 03:40:01;;;;;;;8.73;3.83;;;10.00;82.20;;;;;;5041869;28;20116;-85
2020/12/22 03:42:27;;;;;;;5.53;2.40;;;10.10;82.30;;;;;;5024635;28;20385;-84
2020/12/22 03:44:54;;;;;;;6.15;2.28;;;10.20;82.40;;;;;;5037870;28;20036;-84
2020/12/22 03:47:19;;;;;;;7.68;3.40;;;10.20;82.50;;;;;;5021327;28;20086;-84
2020/12/22 03:49:45;;;;;;;7.55;3.03;;;10.30;82.40;;;;;;5040480;28;20488;-83
2020/12/22 03:52:11;;;;;;;4.10;2.03;;;10.40;82.50;;;;;;5041169;28;20075;-83
2020/12/22 03:54:37;;;;;;;5.72;2.70;;;10.50;83.20;;;;;;5024249;28;20477;-84
2020/12/22 03:57:04;;;;;;;5.93;2.50;;;10.50;82.60;;;;;;5037954;28;20072;-84
2020/12/22 03:59:30;;;;;;;6.05;2.45;;;10.60;82.70;;;;;;5034266;28;20032;-83
2020/12/22 04:01:56;;;;;;;4.45;1.92;;;10.60;82.70;;;;;;5023897;28;20409;-84
2020/12/22 04:04:23;;;;;;;6.53;2.45;;;10.70;83.30;;;;;;5037468;28;20033;-84
2020/12/22 04:06:50;;;;;;;6.30;1.75;;;10.70;83.20;;;;;;5055456;28;20377;-84
2020/12/22 04:09:17;;;;;;;5.50;2.33;;;10.80;82.50;;;;;;5055015;28;20405;-84
2020/12/22 04:11:43;;;;;;;6.50;2.25;;;10.80;82.50;;;;;;5040989;28;20120;-83
2020/12/22 04:14:10;;;;;;;5.07;2.17;;;10.80;82.40;;;;;;5037459;28;20112;-84
2020/12/22 04:16:36;;;;;;;6.88;2.50;;;10.90;82.60;;;;;;5024572;28;20094;-84
2020/12/22 04:19:02;;;;;;;4.65;2.08;;;10.90;82.60;;;;;;5039893;28;20021;-84
2020/12/22 04:21:28;;;;;;;6.38;2.40;;;10.90;82.50;;;;;;5037156;28;20393;-84
2020/12/22 04:23:54;;;;;;;4.78;1.98;;;11.00;82.40;;;;;;5020401;28;20036;-84
2020/12/22 04:26:21;;;;;;;6.57;2.50;;;11.00;82.40;;;;;;5017895;28;20025;-84
2020/12/22 04:28:47;;;;;;;4.68;2.17;;;11.00;82.40;;;;;;5036970;28;20055;-83
2020/12/22 04:31:13;;;;;;;5.13;2.42;;;11.00;82.40;;;;;;5036802;28;20041;-84
2020/12/22 04:33:39;;;;;;;5.30;2.20;;;11.00;82.50;;;;;;5036645;28;20029;-84
2020/12/22 04:36:04;;;;;;;5.40;2.25;;;11.00;82.50;;;;;;5043943;28;20025;-84
2020/12/22 04:38:31;;;;;;;4.47;1.98;;;11.00;82.50;;;;;;5041233;28;20565;-84
2020/12/22 04:41:01;;;;;;;6.63;2.20;;;11.00;82.40;;;;;;5020176;28;20029;-84
2020/12/22 04:43:30;;;;;;;5.45;2.20;;;11.10;82.50;;;;;;5036444;28;20033;-84
2020/12/22 04:46:03;;;;;;;6.90;2.25;;;11.10;82.50;;;;;;5036933;28;20079;-83
2020/12/22 04:48:36;;;;;;;3.95;1.55;;;11.10;82.50;;;;;;5037079;28;20488;-83
2020/12/22 04:51:09;;;;;;;3.08;1.75;;;11.20;82.50;;;;;;5036238;28;20048;-83
2020/12/22 04:53:35;;;;;;;4.55;2.00;;;11.10;82.40;;;;;;5057185;28;20049;-84
2020/12/22 04:56:04;;;;;;;2.63;1.50;;;11.10;82.40;;;;;;5039283;28;20055;-84
2020/12/22 04:58:30;;;;;;;1.88;1.42;;;11.10;82.50;;;;;;5036711;28;20078;-84
2020/12/22 05:00:56;;;;;;;1.23;1.10;;;11.10;82.50;;;;;;5025916;28;20132;-83
2020/12/22 05:03:23;;;;;;;0.98;0.75;;;11.10;82.60;;;;;;5046539;28;20032;-85
2020/12/22 05:05:49;;;;;;;10.13;4.50;;;11.20;82.70;;;;;;5037038;28;20115;-85
2020/12/22 05:08:15;;;;;;;2.33;1.60;;;11.20;82.80;;;;;;5032639;28;20178;-85
2020/12/22 05:10:42;;;;;;;1.85;1.27;;;11.20;82.90;;;;;;5037131;28;20040;-85
2020/12/22 05:13:09;;;;;;;0.93;0.73;;;11.30;82.80;;;;;;5036215;28;20025;-85
2020/12/22 05:15:36;;;;;;;0.88;0.68;;;11.30;83.10;;;;;;5020117;28;20028;-83
2020/12/22 05:18:02;;;;;;;1.45;0.93;;;11.40;83.10;;;;;;5035702;28;20060;-83
2020/12/22 05:20:28;;;;;;;0.90;0.60;;;11.40;83.00;;;;;;5057605;28;20040;-83
2020/12/22 05:22:54;;;;;;;2.40;1.15;;;11.50;83.10;;;;;;5036278;28;20025;-83
2020/12/22 05:25:21;;;;;;;1.52;0.93;;;11.50;83.10;;;;;;5053816;28;20025;-83
2020/12/22 05:27:51;;;;;;;0.93;0.90;;;11.60;83.10;;;;;;5019790;28;20025;-85
2020/12/22 05:30:17;;;;;;;0.80;0.80;;;11.60;83.20;;;;;;5053797;28;20385;-84
2020/12/22 05:32:43;;;;;;;2.13;0.93;;;11.60;83.10;;;;;;5035520;28;20024;-83
2020/12/22 05:35:13;;;;;;;1.10;0.80;;;11.70;83.80;;;;;;5036049;28;20037;-83
2020/12/22 05:37:40;;;;;;;0.40;0.40;;;11.70;83.10;;;;;;5042416;28;20025;-83
2020/12/22 05:40:10;;;;;;;6.53;3.03;;;11.70;83.00;;;;;;5049901;28;20083;-83
2020/12/22 05:42:36;;;;;;;1.33;1.20;;;11.70;83.10;;;;;;5053670;28;20079;-83
2020/12/22 05:45:09;;;;;;;0.75;0.75;;;11.80;83.10;;;;;;5035754;28;20362;-83
2020/12/22 05:47:35;;;;;;;0.65;0.57;;;11.80;83.00;;;;;;5035926;28;20021;-83
2020/12/22 05:50:01;;;;;;;0.98;0.90;;;11.80;83.10;;;;;;5038369;28;20021;-83
2020/12/22 05:52:29;;;;;;;0.57;0.57;;;11.80;83.10;;;;;;5035876;28;20132;-83
2020/12/22 05:54:56;;;;;;;1.92;1.00;;;11.90;83.00;;;;;;5035941;28;20386;-83
2020/12/22 05:57:27;;;;;;;2.30;1.20;;;11.90;82.90;;;;;;5039219;28;20036;-83
2020/12/22 05:59:53;;;;;;;1.25;1.05;;;11.90;83.00;;;;;;5056910;28;20021;-83
2020/12/22 06:02:32;;;;;;;0.80;0.80;;;11.90;83.00;;;;;;5024763;28;20104;-83
2020/12/22 06:05:00;;;;;;;1.48;1.10;;;12.00;83.10;;;;;;5035683;28;20067;-83
2020/12/22 06:07:27;;;;;;;2.03;1.38;;;11.90;82.90;;;;;;5035781;28;20481;-83
2020/12/22 06:09:53;;;;;;;2.28;1.40;;;12.00;83.00;;;;;;5035540;28;20111;-83
2020/12/22 06:12:23;;;;;;;3.58;2.05;;;12.00;82.90;;;;;;5035229;28;20049;-83
2020/12/22 06:14:53;;;;;;;6.00;2.63;;;12.00;83.60;;;;;;5035662;28;20044;-85
2020/12/22 06:17:20;;;;;;;6.55;2.35;;;12.00;83.10;;;;;;5059080;28;20377;-82
2020/12/22 06:19:47;;;;;;;3.03;1.70;;;12.10;83.30;;;;;;5023259;28;20543;-85
2020/12/22 06:22:15;;;;;;;2.92;1.48;;;12.10;83.20;;;;;;5038991;28;20025;-85
2020/12/22 06:24:44;;;;;;;1.38;1.10;;;12.10;83.00;;;;;;5035778;28;20043;-86
2020/12/22 06:27:12;;;;;;;2.25;1.30;;;12.10;83.00;;;;;;5018025;28;20395;-85
2020/12/22 06:29:41;;;;;;;2.45;1.40;;;12.20;82.90;;;;;;5016462;28;20036;-85
2020/12/22 06:32:16;;;;;;;3.15;1.77;;;12.10;83.10;;;;;;5018574;28;20042;-82
2020/12/22 06:34:42;;;;;;;;;;;12.30;83.20;;;;;;5016799;28;20452;-81
2020/12/22 06:37:08;;;;;;;3.50;1.60;;;12.30;83.10;;;;;;5025784;28;19909;-81
2020/12/22 06:39:43;;;;;;;3.60;1.90;;;12.20;82.70;;;;;;5017947;28;20118;-81
2020/12/22 06:42:10;;;;;;;5.07;2.15;;;12.20;82.70;;;;;;5018266;28;20486;-81
2020/12/22 06:44:37;;;;;;;4.68;2.00;;;12.20;82.80;;;;;;5017722;28;20340;-81
2020/12/22 06:47:04;;;;;;;3.05;1.52;;;12.20;82.70;;;;;;5004003;28;20032;-81
2020/12/22 06:49:52;;;;;;;2.67;1.50;;;12.20;82.70;;;;;;5019420;28;20013;-81
2020/12/22 06:52:43;;;;;;;2.38;1.50;;;12.10;82.70;;;;;;5015647;28;20041;-84
2020/12/22 06:55:11;;;;;;;1.90;1.13;;;12.10;82.80;;;;;;5016030;28;20030;-88
2020/12/22 06:57:46;;;;;;;0.60;0.60;;;12.10;83.00;;;;;;5015795;28;20028;-84
2020/12/22 07:00:27;;;;;;;2.58;0.90;;;12.10;83.70;;;;;;5019881;28;20087;-84
2020/12/22 07:03:15;;;;;;;2.35;1.15;;;12.20;83.20;;;;;;5019548;28;20100;-85
2020/12/22 07:05:48;;;;;;;1.70;0.90;;;12.20;83.20;;;;;;5013927;28;20078;-85
2020/12/22 07:08:16;;;;;;;0.70;0.70;;;12.20;83.20;;;;;;5015554;28;20025;-85
2020/12/22 07:10:48;;;;;;;1.38;1.00;;;12.30;83.20;;;;;;5003136;28;20069;-85
2020/12/22 07:13:16;;;;;;;0.73;0.70;;;12.30;83.20;;;;;;5016797;28;20598;-86
2020/12/22 07:15:47;;;;;;;2.17;1.05;;;12.30;83.10;;;;;;5007161;28;20030;-90
2020/12/22 07:18:18;;;;;;;2.70;1.20;;;12.30;83.10;;;;;;5012881;28;20030;-90
2020/12/22 07:20:46;;;;;;;1.50;0.98;;;12.40;83.30;;;;;;5015565;28;20458;-88
2020/12/22 07:23:13;;;;;;;1.13;0.98;;;12.40;83.30;;;;;;5015610;28;20036;-87
2020/12/22 07:25:40;;;;;;;1.63;1.10;;;12.40;83.30;;;;;;5018627;28;20043;-89
2020/12/22 07:28:10;;;;;;;3.90;1.10;;;12.40;83.30;;;;;;5015967;28;20467;-88
2020/12/22 07:30:36;;;;;;;0.73;0.73;;;12.50;83.80;;;;;;5015247;28;20072;-89
2020/12/22 07:33:04;;;;;;;1.25;0.80;;;12.50;83.30;;;;;;5018453;28;20037;-89
2020/12/22 07:35:33;;;;;;;2.67;1.08;;;12.50;83.30;;;;;;5013678;28;20030;-89
2020/12/22 07:38:07;;;;;;;1.30;0.75;;;12.50;83.20;;;;;;5019560;28;20033;-89
2020/12/22 07:40:39;;;;;;;0.40;0.40;;;12.60;83.20;;;;;;5012827;28;20413;-88
2020/12/22 07:43:09;;;;;;;2.28;0.93;;;12.60;83.40;;;;;;5020619;28;20037;-90
2020/12/22 07:45:35;;;;;;;0.57;0.57;;;12.60;83.60;;;;;;5002958;28;20100;-90
2020/12/22 07:48:07;;;;;;;1.00;0.90;;;12.70;83.40;;;;;;4998990;28;20482;-89
2020/12/22 07:50:34;;;;;;;1.77;0.88;;;12.80;83.40;;;;;;5011820;28;20022;-88
2020/12/22 07:53:01;;;;;;;1.00;0.60;;;12.70;83.40;;;;;;4998027;28;20053;-88
2020/12/22 07:55:36;;;;;;;2.55;1.13;;;12.80;83.40;;;;;;5002814;28;20030;-88
2020/12/22 07:58:03;;;;;;;0.85;0.52;;;12.80;83.30;;;;;;5002107;28;20030;-87
2020/12/22 08:00:29;;;;;;;1.85;0.85;;;12.80;83.20;;;;;;5017654;28;20026;-87
2020/12/22 08:02:55;;;;;;;2.75;1.45;;;12.90;83.30;;;;;;5014244;28;20021;-88
2020/12/22 08:05:20;;;;;;;0.93;0.80;;;12.80;83.30;;;;;;5014217;28;20037;-88
2020/12/22 08:07:52;;;;;;;0.40;0.40;;;12.90;83.20;;;;;;4997967;28;20029;-88
2020/12/22 08:10:18;;;;;;;0.77;0.73;;;12.90;83.30;;;;;;5017399;28;20029;-87
2020/12/22 08:12:50;;;;;;;1.35;0.98;;;13.00;83.40;;;;;;4997881;28;20026;-90
2020/12/22 08:15:16;;;;;;;9.48;2.13;;;13.00;83.50;;;;;;4998956;28;20030;-89
2020/12/22 08:17:45;;;;;;;5.10;2.10;;;13.00;83.30;;;;;;5014376;28;20095;-89
2020/12/22 08:20:13;;;;;;;2.92;1.05;;;13.00;83.30;;;;;;5014769;28;20033;-89
2020/12/22 08:22:41;;;;;;;1.38;0.80;;;13.10;83.20;;;;;;5014702;28;20014;-89
2020/12/22 08:25:07;;;;;;;1.38;0.90;;;13.10;83.30;;;;;;5014163;28;20137;-88
2020/12/22 08:27:33;;;;;;;1.80;1.17;;;13.00;82.90;;;;;;4997283;28;20045;-89
2020/12/22 08:29:59;;;;;;;3.42;1.70;;;13.00;82.80;;;;;;4997536;28;20494;-87
2020/12/22 08:32:26;;;;;;;4.38;1.50;;;13.00;83.20;;;;;;5014041;28;20040;-86
2020/12/22 08:34:55;;;;;;;5.68;1.88;;;13.00;83.20;;;;;;5013605;28;20018;-87
2020/12/22 08:37:27;;;;;;;4.18;1.77;;;13.00;83.30;;;;;;5014882;28;20022;-86
2020/12/22 08:39:54;;;;;;;1.10;1.02;;;13.00;83.20;;;;;;4997375;28;20037;-87
2020/12/22 08:42:21;;;;;;;1.10;1.00;;;12.90;82.60;;;;;;5014194;28;20046;-87
2020/12/22 08:44:52;;;;;;;0.93;0.65;;;12.90;82.50;;;;;;5013792;28;20458;-88
2020/12/22 08:47:19;;;;;;;1.20;0.85;;;12.80;82.50;;;;;;5001137;28;20501;-86
2020/12/22 08:49:48;;;;;;;1.48;0.63;;;12.70;82.60;;;;;;4997467;28;20030;-87
2020/12/22 08:52:19;;;;;;;0.85;0.77;;;12.60;82.60;;;;;;5012543;28;20087;-89
2020/12/22 08:54:47;;;;;;;0.50;0.50;;;12.60;82.70;;;;;;5011705;28;20383;-87
2020/12/22 08:57:20;;;;;;;1.52;1.00;;;12.60;82.90;;;;;;4997278;28;20560;-88
2020/12/22 08:59:46;;;;;;;1.40;0.93;;;12.60;83.30;;;;;;5013480;28;20497;-89
2020/12/22 09:02:29;;;;;;;3.55;1.67;;;12.70;83.70;;;;;;5013455;28;20466;-88
2020/12/22 09:04:56;;;;;;;1.10;1.00;;;12.70;83.80;;;;;;5024048;28;20366;-87
2020/12/22 09:07:25;;;;;;;3.03;1.50;;;12.80;84.10;;;;;;5013366;28;20022;-87
2020/12/22 09:09:55;;;;;;;6.55;2.30;;;12.80;83.80;;;;;;4997027;28;20050;-88
2020/12/22 09:12:27;;;;;;;3.40;1.50;;;12.90;83.90;;;;;;4996887;28;20045;-88
2020/12/22 09:14:56;;;;;;;4.30;1.63;;;12.80;83.70;;;;;;5012993;28;20458;-86
2020/12/22 09:20:24;;;;;;;6.25;2.15;;;13.00;84.40;;;;;;5014664;28;20030;-90
2020/12/22 09:22:50;;;;;;;6.00;1.95;;;13.10;84.30;;;;;;4997734;28;20382;-88
2020/12/22 09:25:15;;;;;;;7.32;2.20;;;13.10;84.30;;;;;;4996848;28;20125;-88
2020/12/22 09:27:42;;;;;;;3.33;1.70;;;13.20;84.20;;;;;;4994271;28;20120;-90
2020/12/22 09:30:15;;;;;;;5.75;2.40;;;13.30;84.40;;;;;;4986113;28;20072;-89
2020/12/22 09:32:43;;;;;;;3.40;1.60;;;13.40;84.70;;;;;;5012907;28;20036;-88
2020/12/22 09:35:09;;;;;;;2.55;1.23;;;13.40;84.60;;;;;;5016608;28;20409;-88
2020/12/22 09:37:35;;;;;;;1.95;1.25;;;13.50;84.50;;;;;;5013313;28;20018;-89
2020/12/22 09:40:00;;;;;;;3.63;1.58;;;13.60;84.50;;;;;;5019191;28;20023;-90
2020/12/22 09:42:27;;;;;;;4.55;1.80;;;13.70;84.50;;;;;;4996947;28;20033;-91
2020/12/22 09:44:53;;;;;;;2.92;1.38;;;13.80;84.70;;;;;;4997629;28;20061;-91
2020/12/22 09:47:19;;;;;;;2.17;1.20;;;13.80;84.60;;;;;;5014213;28;20045;-91
2020/12/22 09:49:44;;;;;;;3.20;1.45;;;13.90;84.40;;;;;;5013549;28;20082;-90
2020/12/22 09:52:10;;;;;;;3.08;1.60;;;13.80;84.00;;;;;;4997003;28;20060;-88
2020/12/22 09:54:36;;;;;;;3.85;1.63;;;13.80;83.80;;;;;;5012857;28;20030;-87
2020/12/22 09:57:03;;;;;;;4.15;1.70;;;13.80;84.00;;;;;;5017083;28;20042;-88
2020/12/22 09:59:28;;;;;;;1.48;0.95;;;13.90;84.10;;;;;;5011473;28;20026;-84
2020/12/22 10:01:58;;;;;;;3.92;1.25;;;13.90;84.30;;;;;;4995358;28;21483;-90
2020/12/22 10:04:23;;;;;;;2.55;1.55;;;13.80;84.40;;;;;;4999474;28;20039;-89
2020/12/22 10:06:50;;;;;;;2.85;0.90;;;13.90;84.20;;;;;;5003147;28;20474;-89
2020/12/22 10:09:16;;;;;;;0.93;0.88;;;13.90;84.20;;;;;;5000348;28;20025;-87
2020/12/22 10:11:42;;;;;;;2.55;0.90;;;13.90;84.20;;;;;;5001289;28;20501;-94
2020/12/22 10:14:08;;;;;;;1.55;1.17;;;13.90;84.10;;;;;;5000899;28;20068;-89
2020/12/22 10:16:34;;;;;;;1.05;0.75;;;14.00;84.40;;;;;;5020491;28;20025;-89
2020/12/22 10:19:00;;;;;;;1.17;1.08;;;14.10;84.60;;;;;;4999500;28;20029;-84
2020/12/22 10:21:26;;;;;;;3.25;1.50;;;14.10;84.60;;;;;;5018211;28;20418;-88
2020/12/22 10:23:59;;;;;;;1.02;0.93;;;14.20;84.60;;;;;;5024095;28;20022;-92
2020/12/22 10:26:26;;;;;;;1.02;1.02;;;14.40;84.60;;;;;;5007311;28;20056;-88
2020/12/22 10:28:52;;;;;;;1.23;0.85;;;14.40;84.10;;;;;;5016394;28;20386;-88
2020/12/22 10:31:19;;;;;;;1.25;0.60;;;14.40;84.40;;;;;;4999833;28;20049;-87
2020/12/22 10:33:46;;;;;;;0.98;0.98;;;14.40;84.40;;;;;;5019824;28;20374;-87
2020/12/22 10:36:13;;;;;;;2.15;0.90;;;14.40;83.60;;;;;;5015968;28;20151;-87
2020/12/22 10:38:39;;;;;;;1.33;0.77;;;14.40;83.70;;;;;;5016370;28;20030;-86
2020/12/22 10:41:05;;;;;;;0.77;0.77;;;14.30;83.80;;;;;;5015944;28;20022;-86
2020/12/22 10:43:31;;;;;;;3.35;1.05;;;14.30;83.90;;;;;;5020801;28;20096;-92
2020/12/22 10:45:57;;;;;;;3.22;1.10;;;14.20;84.00;;;;;;5013480;28;20049;-91
2020/12/22 10:48:23;;;;;;;1.95;1.17;;;14.30;84.40;;;;;;5013937;28;20026;-89
2020/12/22 10:50:49;;;;;;;1.77;1.10;;;14.40;84.80;;;;;;5017548;28;20048;-87
2020/12/22 10:53:15;;;;;;;2.20;1.20;;;14.50;84.60;;;;;;4999597;28;20034;-86
2020/12/22 10:55:40;;;;;;;1.35;1.00;;;14.50;84.50;;;;;;4998329;28;20030;-86
2020/12/22 10:58:07;;;;;;;1.00;0.90;;;14.50;84.20;;;;;;4999246;28;20049;-87
2020/12/22 11:00:33;;;;;;;1.48;0.85;;;14.50;84.40;;;;;;4999554;28;20084;-85
2020/12/22 11:03:01;;;;;;;2.95;1.10;;;14.70;84.70;;;;;;5018734;28;20056;-85
2020/12/22 11:08:11;;;;;;;1.83;0.95;;;14.80;84.20;;;;;;5016938;28;20105;-86
2020/12/22 11:10:38;;;;;;;0.65;0.57;;;14.70;83.60;;;;;;5018589;28;20018;-87
2020/12/22 11:13:04;;;;;;;0.95;0.70;;;14.70;84.10;;;;;;5012333;28;20022;-86
2020/12/22 11:15:31;;;;;;;0.90;0.80;;;14.70;84.00;;;;;;5014266;28;20029;-87
2020/12/22 11:17:57;;;;;;;0.75;0.57;;;14.70;84.10;;;;;;5015036;28;20029;-87
2020/12/22 11:20:22;;;;;;;0.85;0.65;;;14.70;84.00;;;;;;5015477;28;20398;-86
2020/12/22 11:22:48;;;;;;;1.40;0.82;;;14.80;84.10;;;;;;5019468;28;20022;-87
2020/12/22 11:25:15;;;;;;;0.70;0.70;;;14.80;84.30;;;;;;5014946;28;20018;-86
2020/12/22 11:27:42;;;;;;;1.15;0.85;;;14.80;83.80;;;;;;5010856;28;20018;-86
2020/12/22 11:30:08;;;;;;;0.60;0.60;;;14.90;84.20;;;;;;5017406;28;20125;-88
2020/12/22 11:32:46;;;;;;;1.00;0.60;;;14.90;83.80;;;;;;5016099;28;20053;-87
2020/12/22 11:35:11;;;;;;;4.80;1.30;;;14.80;83.60;;;;;;5018544;28;20028;-88
2020/12/22 11:37:37;;;;;;;7.60;2.72;;;14.90;83.70;;;;;;5016204;28;20401;-88
2020/12/22 11:40:06;;;;;;;4.85;2.05;;;14.90;84.00;;;;;;4998505;28;20116;-89
2020/12/22 11:42:32;;;;;;;4.25;1.85;;;14.90;83.90;;;;;;5018972;28;20383;-89
2020/12/22 11:44:57;;;;;;;2.67;1.42;;;14.90;83.60;;;;;;4996572;28;20385;-89
2020/12/22 11:47:26;;;;;;;1.50;1.17;;;14.90;83.80;;;;;;4995089;28;21070;-89
2020/12/22 11:49:52;;;;;;;1.90;1.20;;;15.00;84.00;;;;;;5015524;28;20088;-89
2020/12/22 11:52:20;;;;;;;2.13;1.30;;;15.00;83.60;;;;;;5015851;28;20034;-90
2020/12/22 11:54:46;;;;;;;0.75;0.63;;;14.80;83.30;;;;;;5015063;28;20033;-91
2020/12/22 11:57:39;;;;;;;3.17;1.50;;;14.80;83.00;;;;;;5005998;28;20029;-89
2020/12/22 12:00:05;;;;;;;1.48;0.93;;;14.70;83.10;;;;;;5015728;28;20513;-89
2020/12/22 12:02:32;;;;;;;2.58;1.15;;;14.60;82.80;;;;;;5023650;28;20032;-92
2020/12/22 12:08:21;;;;;;;1.88;1.05;;;14.50;83.50;;;;;;4998160;28;20029;-92
2020/12/22 12:10:48;;;;;;;2.80;1.40;;;14.50;83.40;;;;;;5019760;28;20087;-91
2020/12/22 12:13:19;;;;;;;2.63;1.23;;;14.40;83.20;;;;;;5017547;28;20036;-92
2020/12/22 12:15:50;;;;;;;1.40;1.20;;;14.40;83.30;;;;;;4994445;28;20037;-94
2020/12/22 12:19:26;;;;;;;2.50;1.40;;;14.40;83.50;;;;;;5015044;28;20489;-90
2020/12/22 12:21:50;;;;;;;0.80;0.60;;;14.40;83.70;;;;;;5033204;28;20163;-91
2020/12/22 12:24:15;;;;;;;2.33;1.00;;;14.40;83.40;;;;;;5022690;28;20057;-91
2020/12/22 12:26:41;;;;;;;1.70;1.08;;;14.30;83.70;;;;;;5022562;28;20392;-91
2020/12/22 12:29:07;;;;;;;1.27;0.80;;;14.40;83.70;;;;;;5017551;28;20026;-90
2020/12/22 12:31:45;;;;;;;2.05;1.20;;;14.30;83.60;;;;;;5015300;28;20544;-88
2020/12/22 12:34:11;;;;;;;0.77;0.75;;;14.30;83.70;;;;;;5016642;28;20026;-90
2020/12/22 12:36:37;;;;;;;2.58;1.27;;;14.30;83.60;;;;;;5015695;28;20033;-89
2020/12/22 12:39:04;;;;;;;2.05;1.30;;;14.30;83.60;;;;;;5015266;28;20045;-91
2020/12/22 12:41:30;;;;;;;1.55;1.00;;;14.30;83.90;;;;;;5014731;28;20109;-90
2020/12/22 12:43:56;;;;;;;1.92;1.27;;;14.40;83.90;;;;;;5014914;28;20112;-90
2020/12/22 12:46:21;;;;;;;1.63;0.90;;;14.40;83.80;;;;;;4998237;28;20034;-89
2020/12/22 12:48:47;;;;;;;1.92;1.15;;;14.40;83.50;;;;;;5015597;28;20022;-91
2020/12/22 12:51:13;;;;;;;2.75;1.00;;;14.40;83.90;;;;;;4996958;28;20033;-92
2020/12/22 12:53:41;;;;;;;1.40;1.00;;;14.40;84.10;;;;;;5016079;28;20021;-89
2020/12/22 12:56:11;;;;;;;1.42;1.02;;;14.50;83.70;;;;;;5005537;28;20033;-89
2020/12/22 12:58:37;;;;;;;1.13;0.90;;;14.50;83.70;;;;;;5001138;28;20030;-90